Wetterdaten: Woche 23.10.17 - 29.10.17 (KW43)
Datum Zeit Temp. A. Pool Temp. Feuchte A. Luftdruck Regen Wind Richtung Sonnenschein ET UV Solar Taupunkt Windchill Windben Empfang
23.10.2017 00:00 8,0 C 11,1 C 84 % 1015,4 hPa 0,0 l/m 12,2 km/h (2 Bft) W-SW 0,00 h 0,000 mm 0,0 UV-I 0 W/m 5,6 C 4,3 C 19,0 km/h (3 Bft) 98,18 %
23.10.2017 01:00 7,9 C 11,1 C 85 % 1015,2 hPa 0,0 l/m 13,1 km/h (3 Bft) W-SW 0,00 h 0,025 mm 0,0 UV-I 0 W/m 5,6 C 3,6 C 21,1 km/h (4 Bft) 98,90 %
23.10.2017 02:00 7,7 C 11,1 C 87 % 1015,1 hPa 0,0 l/m 14,7 km/h (3 Bft) W-SW 0,00 h 0,026 mm 0,0 UV-I 0 W/m 5,8 C 2,6 C 22,0 km/h (4 Bft) 97,73 %
23.10.2017 03:00 7,6 C 11,1 C 90 % 1015,0 hPa 0,0 l/m 13,4 km/h (3 Bft) W 0,00 h 0,025 mm 0,0 UV-I 0 W/m 6,0 C 3,1 C 20,3 km/h (4 Bft) 97,48 %
23.10.2017 04:00 7,6 C 11,1 C 90 % 1015,0 hPa 0,2 l/m 14,7 km/h (3 Bft) W-SW 0,00 h 0,026 mm 0,0 UV-I 0 W/m 6,0 C 2,5 C 21,3 km/h (4 Bft) 97,83 %
23.10.2017 05:00 7,7 C 11,1 C 89 % 1015,3 hPa 0,0 l/m 15,5 km/h (3 Bft) W-SW 0,00 h 0,025 mm 0,0 UV-I 0 W/m 6,0 C 2,2 C 23,5 km/h (4 Bft) 98,54 %
23.10.2017 06:00 7,7 C 11,1 C 89 % 1015,5 hPa 0,0 l/m 14,6 km/h (3 Bft) W-SW 0,00 h 0,025 mm 0,0 UV-I 0 W/m 6,0 C 2,6 C 22,8 km/h (4 Bft) 97,04 %
23.10.2017 07:00 7,7 C 10,8 C 90 % 1015,7 hPa 0,0 l/m 13,6 km/h (3 Bft) W 0,00 h 0,026 mm 0,0 UV-I 5 W/m 6,1 C 3,1 C 21,3 km/h (4 Bft) 97,85 %
23.10.2017 08:00 7,7 C 10,6 C 88 % 1016,2 hPa 0,0 l/m 16,3 km/h (3 Bft) W-SW 0,00 h 0,025 mm 0,0 UV-I 18 W/m 5,9 C 1,9 C 24,7 km/h (4 Bft) 98,26 %
23.10.2017 09:00 8,0 C 10,6 C 86 % 1016,6 hPa 0,0 l/m 16,1 km/h (3 Bft) W 0,00 h 0,026 mm 0,0 UV-I 68 W/m 5,8 C 2,2 C 25,1 km/h (4 Bft) 99,24 %
23.10.2017 10:00 8,3 C 10,6 C 85 % 1016,9 hPa 0,0 l/m 15,1 km/h (3 Bft) W-SW 0,00 h 0,050 mm 0,3 UV-I 93 W/m 5,9 C 3,1 C 23,2 km/h (4 Bft) 97,27 %
23.10.2017 11:00 8,3 C 10,6 C 84 % 1017,2 hPa 0,0 l/m 15,7 km/h (3 Bft) W-SW 0,00 h 0,077 mm 0,3 UV-I 70 W/m 5,9 C 2,9 C 24,8 km/h (4 Bft) 97,91 %
23.10.2017 12:00 9,0 C 10,6 C 82 % 1017,1 hPa 0,0 l/m 16,2 km/h (3 Bft) W-SW 0,27 h 0,050 mm 1,0 UV-I 241 W/m 6,1 C 3,5 C 25,8 km/h (4 Bft) 98,38 %
23.10.2017 13:00 9,0 C 10,6 C 83 % 1017,4 hPa 0,0 l/m 11,9 km/h (2 Bft) W 0,00 h 0,153 mm 0,7 UV-I 144 W/m 6,3 C 5,5 C 21,2 km/h (4 Bft) 99,19 %
23.10.2017 14:00 9,0 C 10,6 C 82 % 1017,5 hPa 0,0 l/m 15,3 km/h (3 Bft) W 0,00 h 0,076 mm 0,7 UV-I 119 W/m 6,2 C 3,9 C 25,4 km/h (4 Bft) 97,00 %
23.10.2017 15:00 8,9 C 10,6 C 83 % 1017,8 hPa 0,0 l/m 13,2 km/h (3 Bft) W-SW 0,00 h 0,076 mm 0,0 UV-I 50 W/m 6,3 C 4,8 C 23,4 km/h (4 Bft) 98,28 %
23.10.2017 16:00 8,9 C 10,6 C 85 % 1018,3 hPa 0,0 l/m 12,3 km/h (3 Bft) W 0,00 h 0,051 mm 0,0 UV-I 30 W/m 6,5 C 5,2 C 20,1 km/h (4 Bft) 97,97 %
23.10.2017 17:00 8,7 C 10,6 C 85 % 1018,7 hPa 0,0 l/m 15,4 km/h (3 Bft) W 0,00 h 0,025 mm 0,0 UV-I 12 W/m 6,4 C 3,5 C 24,0 km/h (4 Bft) 98,95 %
23.10.2017 18:00 8,4 C 10,6 C 88 % 1019,2 hPa 0,0 l/m 15,3 km/h (3 Bft) W-SW 0,00 h 0,026 mm 0,0 UV-I 5 W/m 6,5 C 3,1 C 23,7 km/h (4 Bft) 96,07 %
23.10.2017 19:00 8,4 C 10,6 C 87 % 1019,9 hPa 0,0 l/m 11,7 km/h (2 Bft) W 0,00 h 0,025 mm 0,0 UV-I 0 W/m 6,4 C 4,9 C 19,3 km/h (3 Bft) 98,85 %
23.10.2017 20:00 8,7 C 10,6 C 85 % 1020,5 hPa 0,0 l/m 11,7 km/h (2 Bft) W-SW 0,00 h 0,026 mm 0,0 UV-I 0 W/m 6,3 C 5,2 C 19,5 km/h (3 Bft) 97,94 %
23.10.2017 21:00 8,7 C 10,6 C 85 % 1021,1 hPa 0,0 l/m 14,6 km/h (3 Bft) W-SW 0,00 h 0,025 mm 0,0 UV-I 0 W/m 6,4 C 3,8 C 23,3 km/h (4 Bft) 99,44 %
23.10.2017 22:00 8,6 C 10,6 C 86 % 1021,5 hPa 0,0 l/m 16,6 km/h (3 Bft) W-SW 0,00 h 0,025 mm 0,0 UV-I 0 W/m 6,4 C 2,8 C 24,6 km/h (4 Bft) 96,15 %
23.10.2017 23:00 8,6 C 10,6 C 87 % 1021,9 hPa 0,0 l/m 15,8 km/h (3 Bft) W-SW 0,00 h 0,026 mm 0,0 UV-I 0 W/m 6,5 C 3,1 C 24,4 km/h (4 Bft) 99,04 %
24.10.2017 00:00 8,3 C 10,6 C 89 % 1022,4 hPa 0,0 l/m 13,7 km/h (3 Bft) W-SW 0,00 h 0,000 mm 0,0 UV-I 0 W/m 6,7 C 3,8 C 21,2 km/h (4 Bft) 98,17 %
24.10.2017 01:00 8,2 C 10,6 C 91 % 1022,7 hPa 0,0 l/m 12,7 km/h (3 Bft) W-SW 0,00 h 0,025 mm 0,0 UV-I 0 W/m 6,7 C 4,1 C 19,3 km/h (3 Bft) 98,99 %
24.10.2017 02:00 8,2 C 10,6 C 91 % 1022,9 hPa 0,0 l/m 10,3 km/h (2 Bft) W-SW 0,00 h 0,026 mm 0,0 UV-I 0 W/m 6,8 C 5,5 C 15,6 km/h (3 Bft) 96,07 %
24.10.2017 03:00 8,3 C 10,6 C 91 % 1023,0 hPa 0,2 l/m 11,1 km/h (2 Bft) W 0,00 h 0,000 mm 0,0 UV-I 0 W/m 6,8 C 5,1 C 18,0 km/h (3 Bft) 99,21 %
24.10.2017 04:00 8,5 C 10,6 C 90 % 1023,3 hPa 0,0 l/m 12,0 km/h (2 Bft) W 0,00 h 0,025 mm 0,0 UV-I 0 W/m 6,9 C 4,9 C 18,9 km/h (3 Bft) 98,55 %
24.10.2017 05:00 8,4 C 10,6 C 91 % 1023,7 hPa 0,0 l/m 11,0 km/h (2 Bft) W-SW 0,00 h 0,026 mm 0,0 UV-I 0 W/m 7,0 C 5,3 C 17,0 km/h (3 Bft) 97,96 %
24.10.2017 06:00 8,3 C 10,6 C 92 % 1024,0 hPa 0,0 l/m 11,5 km/h (2 Bft) W-SW 0,00 h 0,000 mm 0,0 UV-I 0 W/m 7,1 C 4,9 C 17,6 km/h (3 Bft) 97,10 %
24.10.2017 07:00 8,3 C 10,6 C 92 % 1024,5 hPa 0,0 l/m 11,1 km/h (2 Bft) W-SW 0,00 h 0,000 mm 0,0 UV-I 5 W/m 7,1 C 5,1 C 17,4 km/h (3 Bft) 99,30 %
24.10.2017 08:00 8,2 C 10,6 C 94 % 1025,2 hPa 0,4 l/m 11,7 km/h (2 Bft) W-SW 0,00 h 0,000 mm 0,0 UV-I 15 W/m 7,3 C 4,6 C 17,9 km/h (3 Bft) 98,41 %
24.10.2017 09:00 8,1 C 10,6 C 96 % 1025,8 hPa 0,8 l/m 10,6 km/h (2 Bft) W-SW 0,00 h 0,025 mm 0,0 UV-I 34 W/m 7,5 C 5,2 C 16,0 km/h (3 Bft) 97,08 %
24.10.2017 10:00 8,7 C 10,6 C 96 % 1026,1 hPa 0,0 l/m 11,8 km/h (2 Bft) W-SW 0,00 h 0,025 mm 0,5 UV-I 116 W/m 8,1 C 5,2 C 17,6 km/h (3 Bft) 97,61 %
24.10.2017 11:00 9,7 C 10,6 C 93 % 1026,6 hPa 0,0 l/m 10,9 km/h (2 Bft) W-SW 0,00 h 0,051 mm 0,6 UV-I 111 W/m 8,6 C 6,8 C 17,4 km/h (3 Bft) 98,42 %
24.10.2017 12:00 10,2 C 10,6 C 88 % 1026,5 hPa 0,0 l/m 10,1 km/h (2 Bft) W-SW 0,00 h 0,051 mm 0,6 UV-I 141 W/m 8,3 C 7,9 C 16,2 km/h (3 Bft) 98,95 %
24.10.2017 13:00 11,2 C 10,6 C 83 % 1026,0 hPa 0,0 l/m 10,2 km/h (2 Bft) W-SW 0,07 h 0,076 mm 1,0 UV-I 193 W/m 8,3 C 8,9 C 16,3 km/h (3 Bft) 97,58 %
24.10.2017 14:00 11,3 C 10,6 C 82 % 1025,7 hPa 0,0 l/m 5,7 km/h (1 Bft) W-SW 0,00 h 0,102 mm 0,6 UV-I 97 W/m 8,2 C 11,2 C 9,9 km/h (2 Bft) 97,78 %
24.10.2017 15:00 11,4 C 10,6 C 82 % 1025,3 hPa 0,0 l/m 3,4 km/h (1 Bft) W 0,00 h 0,051 mm 0,0 UV-I 101 W/m 8,5 C 11,4 C 5,7 km/h (1 Bft) 98,16 %
24.10.2017 16:00 11,6 C 10,6 C 82 % 1025,4 hPa 0,0 l/m 4,7 km/h (1 Bft) W 0,03 h 0,050 mm 0,0 UV-I 66 W/m 8,6 C 11,5 C 8,0 km/h (2 Bft) 99,39 %
24.10.2017 17:00 11,0 C 10,6 C 85 % 1025,7 hPa 0,0 l/m 2,3 km/h (1 Bft) W 0,00 h 0,051 mm 0,0 UV-I 13 W/m 8,6 C 11,0 C 4,0 km/h (1 Bft) 97,30 %
24.10.2017 18:00 10,2 C 10,6 C 90 % 1026,0 hPa 0,2 l/m 0,9 km/h (0 Bft) S-SO 0,00 h 0,000 mm 0,0 UV-I 5 W/m 8,6 C 10,2 C 2,2 km/h (1 Bft) 97,96 %
24.10.2017 19:00 10,1 C 10,6 C 90 % 1026,3 hPa 0,0 l/m 1,5 km/h (1 Bft) S-SO 0,00 h 0,000 mm 0,0 UV-I 0 W/m 8,5 C 10,1 C 3,1 km/h (1 Bft) 98,27 %
24.10.2017 20:00 9,8 C 10,6 C 91 % 1026,4 hPa 0,0 l/m 0,6 km/h (0 Bft) S 0,00 h 0,000 mm 0,0 UV-I 0 W/m 8,5 C 9,8 C 1,7 km/h (1 Bft) 99,26 %
24.10.2017 21:00 9,6 C 10,6 C 90 % 1026,2 hPa 0,0 l/m 1,7 km/h (1 Bft) S 0,00 h 0,000 mm 0,0 UV-I 0 W/m 8,1 C 9,6 C 3,6 km/h (1 Bft) 96,53 %
24.10.2017 22:00 9,6 C 10,6 C 89 % 1026,1 hPa 0,0 l/m 1,3 km/h (1 Bft) S 0,00 h 0,000 mm 0,0 UV-I 0 W/m 7,8 C 9,6 C 3,4 km/h (1 Bft) 98,69 %
24.10.2017 23:00 9,2 C 10,6 C 91 % 1025,9 hPa 0,0 l/m 0,9 km/h (0 Bft) S-SO 0,00 h 0,000 mm 0,0 UV-I 0 W/m 7,8 C 9,2 C 2,2 km/h (1 Bft) 97,77 %
25.10.2017 00:00 9,4 C 10,6 C 90 % 1025,6 hPa 0,0 l/m 3,5 km/h (1 Bft) S 0,00 h 0,000 mm 0,0 UV-I 0 W/m 7,9 C 9,4 C 5,9 km/h (2 Bft) 99,45 %
25.10.2017 01:00 9,7 C 10,6 C 89 % 1025,2 hPa 0,0 l/m 3,3 km/h (1 Bft) S 0,00 h 0,000 mm 0,0 UV-I 0 W/m 8,0 C 9,7 C 5,5 km/h (1 Bft) 95,57 %
25.10.2017 02:00 9,8 C 10,6 C 90 % 1025,0 hPa 0,0 l/m 2,7 km/h (1 Bft) SW 0,00 h 0,000 mm 0,0 UV-I 0 W/m 8,1 C 9,8 C 4,6 km/h (1 Bft) 99,37 %
25.10.2017 03:00 9,1 C 10,6 C 90 % 1024,9 hPa 0,0 l/m 0,9 km/h (0 Bft) SW 0,00 h 0,000 mm 0,0 UV-I 0 W/m 7,5 C 9,1 C 2,0 km/h (1 Bft) 98,15 %
25.10.2017 04:00 8,3 C 10,6 C 93 % 1024,9 hPa 0,0 l/m 1,2 km/h (1 Bft) SW 0,00 h 0,000 mm 0,0 UV-I 0 W/m 7,2 C 8,3 C 2,0 km/h (1 Bft) 98,55 %
25.10.2017 05:00 8,4 C 10,6 C 94 % 1024,8 hPa 0,0 l/m 0,9 km/h (0 Bft) SW 0,00 h 0,000 mm 0,0 UV-I 0 W/m 7,5 C 8,4 C 2,1 km/h (1 Bft) 96,27 %
25.10.2017 06:00 8,5 C 10,6 C 94 % 1024,3 hPa 0,0 l/m 0,7 km/h (0 Bft) S-SO 0,00 h 0,000 mm 0,0 UV-I 0 W/m 7,6 C 8,5 C 1,8 km/h (1 Bft) 99,40 %
25.10.2017 07:00 8,0 C 10,6 C 94 % 1024,3 hPa 0,0 l/m 0,5 km/h (0 Bft) S-SO 0,03 h 0,000 mm 0,0 UV-I 10 W/m 7,1 C 8,0 C 1,4 km/h (1 Bft) 98,24 %
25.10.2017 08:00 8,0 C 10,6 C 95 % 1024,7 hPa 0,0 l/m 0,3 km/h (0 Bft) S-SO 0,00 h 0,000 mm 0,0 UV-I 55 W/m 7,2 C 8,0 C 1,5 km/h (1 Bft) 96,90 %
25.10.2017 09:00 9,6 C 10,6 C 93 % 1024,8 hPa 0,0 l/m 2,4 km/h (1 Bft) S-SO 0,23 h 0,025 mm 0,5 UV-I 132 W/m 8,5 C 9,6 C 4,9 km/h (1 Bft) 98,19 %
25.10.2017 10:00 11,5 C 10,6 C 86 % 1024,9 hPa 0,0 l/m 1,1 km/h (1 Bft) S 0,67 h 0,051 mm 0,8 UV-I 250 W/m 9,3 C 11,5 C 2,7 km/h (1 Bft) 99,82 %
25.10.2017 11:00 12,8 C 10,6 C 80 % 1024,9 hPa 0,0 l/m 0,7 km/h (0 Bft) NW 0,00 h 0,127 mm 0,9 UV-I 187 W/m 9,5 C 12,8 C 2,5 km/h (1 Bft) 98,33 %
25.10.2017 12:00 13,7 C 10,6 C 78 % 1024,9 hPa 0,0 l/m 1,0 km/h (0 Bft) NW 0,73 h 0,102 mm 1,4 UV-I 321 W/m 10,0 C 13,7 C 2,8 km/h (1 Bft) 99,31 %
25.10.2017 13:00 14,8 C 10,6 C 74 % 1024,3 hPa 0,0 l/m 2,0 km/h (1 Bft) W 0,87 h 0,178 mm 1,4 UV-I 343 W/m 10,2 C 14,8 C 4,2 km/h (1 Bft) 97,46 %
25.10.2017 14:00 15,2 C 10,6 C 72 % 1023,7 hPa 0,0 l/m 2,5 km/h (1 Bft) W 0,40 h 0,177 mm 1,0 UV-I 237 W/m 10,2 C 15,2 C 5,2 km/h (1 Bft) 97,19 %
25.10.2017 15:00 15,3 C 10,6 C 74 % 1023,3 hPa 0,0 l/m 1,2 km/h (1 Bft) W-NW 0,70 h 0,127 mm 0,6 UV-I 201 W/m 10,6 C 15,3 C 3,0 km/h (1 Bft) 97,29 %
25.10.2017 16:00 15,2 C 10,6 C 75 % 1023,1 hPa 0,0 l/m 1,2 km/h (1 Bft) W-SW 1,00 h 0,102 mm 0,0 UV-I 161 W/m 10,8 C 15,2 C 3,0 km/h (1 Bft) 99,42 %
25.10.2017 17:00 14,1 C 10,6 C 81 % 1023,0 hPa 0,0 l/m 0,8 km/h (0 Bft) W 0,53 h 0,102 mm 0,0 UV-I 37 W/m 10,9 C 14,1 C 1,9 km/h (1 Bft) 98,50 %
25.10.2017 18:00 11,4 C 10,6 C 90 % 1023,0 hPa 0,0 l/m 1,1 km/h (0 Bft) W 0,00 h 0,025 mm 0,0 UV-I 5 W/m 9,9 C 11,4 C 2,1 km/h (1 Bft) 97,15 %
25.10.2017 19:00 10,2 C 10,6 C 93 % 1023,5 hPa 0,0 l/m 1,1 km/h (1 Bft) W 0,00 h 0,000 mm 0,0 UV-I 0 W/m 9,2 C 10,2 C 2,2 km/h (1 Bft) 98,41 %
25.10.2017 20:00 9,6 C 10,6 C 94 % 1023,7 hPa 0,0 l/m 2,0 km/h (1 Bft) W-SW 0,00 h 0,000 mm 0,0 UV-I 0 W/m 8,7 C 9,6 C 3,4 km/h (1 Bft) 97,62 %
25.10.2017 21:00 9,2 C 10,6 C 95 % 1023,8 hPa 0,0 l/m 3,0 km/h (1 Bft) S 0,00 h 0,000 mm 0,0 UV-I 0 W/m 8,5 C 9,2 C 4,5 km/h (1 Bft) 99,64 %
25.10.2017 22:00 8,7 C 10,6 C 96 % 1024,3 hPa 0,0 l/m 0,2 km/h (0 Bft) S 0,00 h 0,000 mm 0,0 UV-I 0 W/m 8,1 C 8,7 C 0,9 km/h (0 Bft) 95,83 %
25.10.2017 23:00 8,0 C 10,6 C 96 % 1024,7 hPa 0,0 l/m 1,9 km/h (1 Bft) S 0,00 h 0,000 mm 0,0 UV-I 0 W/m 7,4 C 8,0 C 3,5 km/h (1 Bft) 99,05 %
26.10.2017 00:00 8,2 C 10,6 C 97 % 1024,9 hPa 0,0 l/m 2,0 km/h (1 Bft) S-SW 0,00 h 0,000 mm 0,0 UV-I 0 W/m 7,7 C 8,2 C 3,6 km/h (1 Bft) 98,67 %
26.10.2017 01:00 8,7 C 10,6 C 97 % 1025,1 hPa 0,0 l/m 2,9 km/h (1 Bft) S 0,00 h 0,000 mm 0,0 UV-I 0 W/m 8,2 C 8,7 C 4,9 km/h (1 Bft) 97,98 %
26.10.2017 02:00 8,7 C 10,6 C 96 % 1025,5 hPa 0,0 l/m 2,8 km/h (1 Bft) S-SW 0,00 h 0,000 mm 0,0 UV-I 0 W/m 8,1 C 8,7 C 4,7 km/h (1 Bft) 97,78 %
26.10.2017 03:00 8,5 C 10,6 C 96 % 1025,6 hPa 0,0 l/m 2,5 km/h (1 Bft) S-SW 0,00 h 0,000 mm 0,0 UV-I 0 W/m 7,9 C 8,5 C 4,5 km/h (1 Bft) 98,33 %
26.10.2017 04:00 7,8 C 10,6 C 96 % 1025,6 hPa 0,0 l/m 0,5 km/h (0 Bft) S-SW 0,00 h 0,000 mm 0,0 UV-I 0 W/m 7,2 C 7,8 C 1,6 km/h (1 Bft) 99,52 %
26.10.2017 05:00 7,6 C 10,6 C 97 % 1025,9 hPa 0,0 l/m 0,4 km/h (0 Bft) S-SW 0,00 h 0,000 mm 0,0 UV-I 0 W/m 7,0 C 7,6 C 0,8 km/h (0 Bft) 96,60 %
26.10.2017 06:00 7,7 C 10,6 C 97 % 1025,9 hPa 0,0 l/m 1,3 km/h (1 Bft) S 0,00 h 0,000 mm 0,0 UV-I 0 W/m 7,3 C 7,7 C 3,1 km/h (1 Bft) 98,39 %
26.10.2017 07:00 8,0 C 10,6 C 97 % 1025,6 hPa 0,0 l/m 1,1 km/h (1 Bft) S 0,00 h 0,000 mm 0,0 UV-I 7 W/m 7,5 C 8,0 C 2,5 km/h (1 Bft) 97,99 %
26.10.2017 08:00 8,3 C 10,5 C 97 % 1025,8 hPa 0,0 l/m 1,1 km/h (0 Bft) SO 0,00 h 0,000 mm 0,0 UV-I 34 W/m 7,8 C 8,3 C 2,1 km/h (1 Bft) 99,69 %
26.10.2017 09:00 9,7 C 10,6 C 96 % 1025,9 hPa 0,0 l/m 0,1 km/h (0 Bft) SO 0,00 h 0,025 mm 0,0 UV-I 51 W/m 9,1 C 9,7 C 0,4 km/h (0 Bft) 96,53 %
26.10.2017 10:00 11,0 C 10,6 C 94 % 1025,6 hPa 0,0 l/m 0,9 km/h (0 Bft) S 0,10 h 0,026 mm 0,7 UV-I 139 W/m 10,1 C 11,0 C 2,6 km/h (1 Bft) 98,59 %
26.10.2017 11:00 13,2 C 10,6 C 89 % 1025,4 hPa 0,0 l/m 1,9 km/h (1 Bft) SW 1,00 h 0,076 mm 1,4 UV-I 384 W/m 11,4 C 13,2 C 4,4 km/h (1 Bft) 98,32 %
26.10.2017 12:00 15,4 C 10,6 C 82 % 1024,8 hPa 0,0 l/m 3,3 km/h (1 Bft) W 1,00 h 0,203 mm 1,8 UV-I 514 W/m 12,5 C 15,4 C 7,0 km/h (2 Bft) 99,19 %
26.10.2017 13:00 16,1 C 10,6 C 82 % 1024,0 hPa 0,0 l/m 3,2 km/h (1 Bft) NW 0,60 h 0,280 mm 1,4 UV-I 327 W/m 12,9 C 16,1 C 7,2 km/h (2 Bft) 98,15 %
26.10.2017 14:00 16,1 C 10,6 C 82 % 1023,5 hPa 0,0 l/m 3,7 km/h (1 Bft) W-NW 0,93 h 0,177 mm 1,2 UV-I 325 W/m 12,9 C 16,1 C 8,7 km/h (2 Bft) 99,20 %
26.10.2017 15:00 16,2 C 10,6 C 81 % 1023,0 hPa 0,0 l/m 3,2 km/h (1 Bft) W-NW 0,93 h 0,178 mm 0,7 UV-I 269 W/m 12,9 C 16,2 C 7,4 km/h (2 Bft) 96,44 %
26.10.2017 16:00 15,8 C 10,6 C 81 % 1022,9 hPa 0,0 l/m 3,1 km/h (1 Bft) W-NW 0,87 h 0,153 mm 0,4 UV-I 138 W/m 12,6 C 15,8 C 7,0 km/h (2 Bft) 97,70 %
26.10.2017 17:00 14,6 C 10,6 C 85 % 1022,6 hPa 0,0 l/m 1,4 km/h (1 Bft) W 0,60 h 0,076 mm 0,0 UV-I 38 W/m 12,2 C 14,6 C 2,7 km/h (1 Bft) 98,19 %
26.10.2017 18:00 12,4 C 10,6 C 92 % 1022,4 hPa 0,0 l/m 0,6 km/h (0 Bft) SW 0,00 h 0,025 mm 0,0 UV-I 5 W/m 11,1 C 12,4 C 1,2 km/h (1 Bft) 99,67 %
26.10.2017 19:00 11,5 C 10,6 C 94 % 1022,7 hPa 0,0 l/m 1,3 km/h (1 Bft) W 0,00 h 0,000 mm 0,0 UV-I 0 W/m 10,6 C 11,5 C 2,7 km/h (1 Bft) 97,09 %
26.10.2017 20:00 11,0 C 10,6 C 95 % 1022,8 hPa 0,0 l/m 2,4 km/h (1 Bft) W-SW 0,00 h 0,000 mm 0,0 UV-I 0 W/m 10,2 C 11,0 C 3,9 km/h (1 Bft) 97,14 %
26.10.2017 21:00 10,5 C 10,6 C 96 % 1022,8 hPa 0,0 l/m 4,5 km/h (1 Bft) SW 0,00 h 0,000 mm 0,0 UV-I 0 W/m 9,8 C 10,5 C 6,5 km/h (2 Bft) 99,45 %
26.10.2017 22:00 10,0 C 10,6 C 96 % 1022,4 hPa 0,0 l/m 3,7 km/h (1 Bft) S-SW 0,00 h 0,000 mm 0,0 UV-I 0 W/m 9,4 C 10,0 C 5,6 km/h (1 Bft) 98,35 %
26.10.2017 23:00 9,6 C 10,6 C 97 % 1021,8 hPa 0,0 l/m 1,4 km/h (1 Bft) S 0,00 h 0,000 mm 0,0 UV-I 0 W/m 9,1 C 9,6 C 3,0 km/h (1 Bft) 98,19 %
27.10.2017 00:00 9,4 C 10,6 C 97 % 1021,3 hPa 0,0 l/m 2,3 km/h (1 Bft) S 0,00 h 0,000 mm 0,0 UV-I 0 W/m 8,9 C 9,4 C 4,0 km/h (1 Bft) 96,80 %
27.10.2017 01:00 9,4 C 10,6 C 97 % 1020,7 hPa 0,0 l/m 3,6 km/h (1 Bft) S-SW 0,00 h 0,000 mm 0,0 UV-I 0 W/m 8,9 C 9,4 C 5,3 km/h (1 Bft) 99,60 %
27.10.2017 02:00 9,6 C 10,6 C 97 % 1020,0 hPa 0,2 l/m 0,7 km/h (0 Bft) SW 0,00 h 0,000 mm 0,0 UV-I 0 W/m 9,1 C 9,6 C 1,8 km/h (1 Bft) 97,76 %
27.10.2017 03:00 9,8 C 10,6 C 97 % 1019,0 hPa 0,0 l/m 0,1 km/h (0 Bft) N 0,00 h 0,000 mm 0,0 UV-I 0 W/m 9,3 C 9,8 C 0,6 km/h (0 Bft) 97,39 %
27.10.2017 04:00 10,1 C 10,6 C 98 % 1017,8 hPa 0,0 l/m 0,2 km/h (0 Bft) SW 0,00 h 0,000 mm 0,0 UV-I 0 W/m 9,8 C 10,1 C 1,1 km/h (0 Bft) 97,66 %
27.10.2017 05:00 10,3 C 10,6 C 98 % 1017,0 hPa 0,0 l/m 0,0 km/h (0 Bft) N 0,00 h 0,000 mm 0,0 UV-I 0 W/m 10,0 C 10,3 C 0,1 km/h (0 Bft) 99,04 %
27.10.2017 06:00 10,6 C 10,6 C 98 % 1016,1 hPa 0,4 l/m 1,8 km/h (1 Bft) SW 0,00 h 0,000 mm 0,0 UV-I 0 W/m 10,3 C 10,6 C 3,3 km/h (1 Bft) 98,11 %
27.10.2017 07:00 11,1 C 10,6 C 98 % 1015,3 hPa 3,2 l/m 7,0 km/h (2 Bft) SW 0,00 h 0,000 mm 0,0 UV-I 3 W/m 10,8 C 10,3 C 10,9 km/h (2 Bft) 97,06 %
27.10.2017 08:00 11,8 C 10,6 C 98 % 1015,0 hPa 0,6 l/m 11,5 km/h (2 Bft) SW 0,00 h 0,000 mm 0,0 UV-I 12 W/m 11,4 C 8,8 C 17,5 km/h (3 Bft) 97,47 %
27.10.2017 09:00 12,3 C 10,6 C 97 % 1015,0 hPa 0,0 l/m 12,7 km/h (3 Bft) W-SW 0,00 h 0,000 mm 0,0 UV-I 77 W/m 11,8 C 9,0 C 19,3 km/h (3 Bft) 99,10 %
27.10.2017 10:00 12,8 C 10,6 C 93 % 1014,9 hPa 0,0 l/m 16,0 km/h (3 Bft) W-SW 0,00 h 0,051 mm 0,0 UV-I 70 W/m 11,6 C 8,2 C 25,0 km/h (4 Bft) 97,59 %
27.10.2017 11:00 12,0 C 10,6 C 89 % 1015,8 hPa 2,6 l/m 14,8 km/h (3 Bft) W-SW 0,00 h 0,051 mm 0,0 UV-I 37 W/m 10,3 C 7,9 C 24,5 km/h (4 Bft) 97,32 %
27.10.2017 12:00 8,3 C 10,6 C 93 % 1018,9 hPa 3,0 l/m 7,8 km/h (2 Bft) W 0,00 h 0,025 mm 0,0 UV-I 38 W/m 7,2 C 6,9 C 15,5 km/h (3 Bft) 98,40 %
27.10.2017 13:00 7,8 C 10,6 C 93 % 1019,9 hPa 0,2 l/m 13,6 km/h (3 Bft) S-SW 0,00 h 0,025 mm 0,0 UV-I 44 W/m 6,7 C 3,3 C 22,0 km/h (4 Bft) 98,84 %
27.10.2017 14:00 7,7 C 10,6 C 92 % 1020,5 hPa 0,6 l/m 18,0 km/h (3 Bft) SW 0,00 h 0,026 mm 0,5 UV-I 84 W/m 6,5 C 1,2 C 28,4 km/h (4 Bft) 96,98 %
27.10.2017 15:00 7,9 C 10,6 C 92 % 1020,6 hPa 0,2 l/m 17,8 km/h (3 Bft) SW 0,00 h 0,051 mm 0,3 UV-I 87 W/m 6,7 C 1,5 C 28,1 km/h (4 Bft) 97,76 %
27.10.2017 16:00 8,1 C 10,6 C 93 % 1021,0 hPa 3,8 l/m 15,1 km/h (3 Bft) W-SW 0,00 h 0,050 mm 0,0 UV-I 18 W/m 7,0 C 3,0 C 23,5 km/h (4 Bft) 98,45 %
27.10.2017 17:00 7,7 C 10,6 C 91 % 1021,7 hPa 0,0 l/m 14,5 km/h (3 Bft) W-SW 0,03 h 0,026 mm 0,0 UV-I 17 W/m 6,3 C 2,7 C 21,8 km/h (4 Bft) 98,46 %
27.10.2017 18:00 7,3 C 10,6 C 92 % 1022,5 hPa 0,0 l/m 10,6 km/h (2 Bft) S-SW 0,00 h 0,025 mm 0,0 UV-I 5 W/m 6,1 C 4,4 C 15,9 km/h (3 Bft) 97,13 %
27.10.2017 19:00 7,5 C 10,6 C 93 % 1023,4 hPa 0,0 l/m 14,4 km/h (3 Bft) SW 0,00 h 0,000 mm 0,0 UV-I 0 W/m 6,4 C 2,5 C 21,5 km/h (4 Bft) 97,92 %
27.10.2017 20:00 8,2 C 10,6 C 90 % 1024,2 hPa 0,0 l/m 18,2 km/h (3 Bft) W-SW 0,00 h 0,000 mm 0,0 UV-I 0 W/m 6,7 C 1,7 C 26,9 km/h (4 Bft) 99,50 %
27.10.2017 21:00 8,3 C 10,6 C 89 % 1024,6 hPa 0,0 l/m 19,2 km/h (3 Bft) W-SW 0,00 h 0,026 mm 0,0 UV-I 0 W/m 6,6 C 1,4 C 27,6 km/h (4 Bft) 97,80 %
27.10.2017 22:00 8,4 C 10,6 C 87 % 1025,0 hPa 0,0 l/m 16,7 km/h (3 Bft) W-SW 0,00 h 0,025 mm 0,0 UV-I 0 W/m 6,5 C 2,6 C 24,3 km/h (4 Bft) 96,82 %
27.10.2017 23:00 8,6 C 10,3 C 87 % 1025,3 hPa 0,0 l/m 18,2 km/h (3 Bft) W-SW 0,00 h 0,025 mm 0,0 UV-I 0 W/m 6,5 C 2,2 C 29,1 km/h (5 Bft) 97,37 %
28.10.2017 00:00 8,2 C 10,0 C 88 % 1025,0 hPa 0,0 l/m 20,7 km/h (4 Bft) W-SW 0,00 h 0,000 mm 0,0 UV-I 0 W/m 6,3 C 0,7 C 31,6 km/h (5 Bft) 96,44 %
28.10.2017 01:00 8,3 C 10,0 C 86 % 1024,8 hPa 0,0 l/m 16,7 km/h (3 Bft) W-SW 0,00 h 0,025 mm 0,0 UV-I 0 W/m 6,2 C 2,5 C 24,8 km/h (4 Bft) 97,13 %
28.10.2017 02:00 8,2 C 10,0 C 86 % 1024,4 hPa 0,0 l/m 14,8 km/h (3 Bft) W 0,00 h 0,026 mm 0,0 UV-I 0 W/m 6,1 C 3,1 C 21,9 km/h (4 Bft) 97,26 %
28.10.2017 03:00 8,4 C 10,0 C 86 % 1024,3 hPa 0,0 l/m 15,7 km/h (3 Bft) W-SW 0,00 h 0,025 mm 0,0 UV-I 0 W/m 6,2 C 2,8 C 23,8 km/h (4 Bft) 97,96 %
28.10.2017 04:00 8,1 C 10,0 C 88 % 1023,6 hPa 0,0 l/m 14,8 km/h (3 Bft) SW 0,00 h 0,026 mm 0,0 UV-I 0 W/m 6,2 C 3,0 C 21,9 km/h (4 Bft) 99,33 %
28.10.2017 05:00 7,8 C 10,0 C 89 % 1023,1 hPa 0,0 l/m 16,1 km/h (3 Bft) W-SW 0,00 h 0,025 mm 0,0 UV-I 0 W/m 6,1 C 2,0 C 23,2 km/h (4 Bft) 96,77 %
28.10.2017 06:00 7,9 C 10,0 C 88 % 1022,5 hPa 0,0 l/m 17,8 km/h (3 Bft) W-SW 0,00 h 0,025 mm 0,0 UV-I 0 W/m 6,0 C 1,5 C 26,2 km/h (4 Bft) 98,08 %
28.10.2017 07:00 7,8 C 10,0 C 87 % 1021,7 hPa 0,0 l/m 16,1 km/h (3 Bft) W-SW 0,03 h 0,026 mm 0,0 UV-I 8 W/m 5,8 C 2,0 C 23,8 km/h (4 Bft) 98,27 %
28.10.2017 08:00 7,7 C 10,0 C 87 % 1021,8 hPa 0,0 l/m 16,6 km/h (3 Bft) W-SW 0,00 h 0,025 mm 0,0 UV-I 38 W/m 5,7 C 1,7 C 25,0 km/h (4 Bft) 98,79 %
28.10.2017 09:00 8,3 C 10,0 C 85 % 1021,6 hPa 0,2 l/m 18,4 km/h (3 Bft) W 0,00 h 0,026 mm 0,0 UV-I 70 W/m 6,0 C 1,7 C 27,1 km/h (4 Bft) 97,10 %
28.10.2017 10:00 8,6 C 10,0 C 83 % 1021,4 hPa 0,0 l/m 19,7 km/h (3 Bft) W-SW 0,00 h 0,050 mm 0,5 UV-I 102 W/m 5,9 C 1,8 C 30,1 km/h (5 Bft) 97,65 %
28.10.2017 11:00 9,0 C 10,0 C 80 % 1020,9 hPa 0,0 l/m 21,4 km/h (4 Bft) W-SW 0,07 h 0,077 mm 0,7 UV-I 168 W/m 5,8 C 1,6 C 34,3 km/h (5 Bft) 98,49 %
28.10.2017 12:00 9,2 C 10,0 C 78 % 1020,1 hPa 0,0 l/m 20,2 km/h (4 Bft) W 0,00 h 0,127 mm 0,7 UV-I 101 W/m 5,6 C 2,3 C 31,6 km/h (5 Bft) 98,99 %
28.10.2017 13:00 9,1 C 10,0 C 78 % 1019,0 hPa 0,0 l/m 20,7 km/h (4 Bft) W-SW 0,00 h 0,076 mm 0,7 UV-I 110 W/m 5,4 C 2,0 C 31,8 km/h (5 Bft) 97,24 %
28.10.2017 14:00 9,7 C 10,0 C 73 % 1017,8 hPa 0,0 l/m 24,7 km/h (4 Bft) W-SW 0,07 h 0,101 mm 0,6 UV-I 132 W/m 5,0 C 1,6 C 40,2 km/h (6 Bft) 98,35 %
28.10.2017 15:00 9,9 C 10,0 C 68 % 1017,4 hPa 0,0 l/m 24,5 km/h (4 Bft) W-SW 0,07 h 0,127 mm 0,5 UV-I 105 W/m 4,3 C 1,9 C 40,9 km/h (6 Bft) 97,98 %
28.10.2017 16:00 9,7 C 10,0 C 68 % 1017,1 hPa 0,0 l/m 24,6 km/h (4 Bft) W-SW 0,00 h 0,127 mm 0,0 UV-I 47 W/m 4,1 C 1,6 C 37,5 km/h (5 Bft) 99,21 %
28.10.2017 17:00 9,5 C 10,0 C 69 % 1016,8 hPa 0,0 l/m 21,9 km/h (4 Bft) W-SW 0,00 h 0,102 mm 0,0 UV-I 11 W/m 4,2 C 2,1 C 30,5 km/h (5 Bft) 96,77 %
28.10.2017 18:00 9,4 C 10,0 C 70 % 1016,7 hPa 0,0 l/m 19,8 km/h (4 Bft) W-SW 0,00 h 0,076 mm 0,0 UV-I 0 W/m 4,2 C 2,6 C 27,2 km/h (4 Bft) 97,69 %
28.10.2017 19:00 9,4 C 10,0 C 71 % 1016,4 hPa 0,0 l/m 18,4 km/h (3 Bft) W-SW 0,00 h 0,051 mm 0,0 UV-I 0 W/m 4,4 C 3,2 C 25,9 km/h (4 Bft) 98,63 %
28.10.2017 20:00 9,5 C 10,0 C 70 % 1015,9 hPa 0,0 l/m 20,5 km/h (4 Bft) W-SW 0,00 h 0,051 mm 0,0 UV-I 0 W/m 4,2 C 2,5 C 27,8 km/h (4 Bft) 99,03 %
28.10.2017 21:00 9,6 C 10,0 C 68 % 1015,4 hPa 0,0 l/m 20,1 km/h (4 Bft) W 0,00 h 0,076 mm 0,0 UV-I 0 W/m 3,9 C 2,8 C 27,5 km/h (4 Bft) 97,49 %
28.10.2017 22:00 9,7 C 10,0 C 65 % 1014,8 hPa 0,0 l/m 19,5 km/h (3 Bft) W-SW 0,00 h 0,076 mm 0,0 UV-I 0 W/m 3,5 C 3,2 C 27,8 km/h (4 Bft) 97,34 %
28.10.2017 23:00 9,8 C 9,7 C 62 % 1013,8 hPa 0,0 l/m 22,0 km/h (4 Bft) W-SW 0,00 h 0,076 mm 0,0 UV-I 0 W/m 3,0 C 2,6 C 31,7 km/h (5 Bft) 98,73 %
29.10.2017 00:00 7,7 C 9,4 C 80 % 1013,4 hPa 1,0 l/m 23,8 km/h (4 Bft) W-SW 0,00 h 0,000 mm 0,0 UV-I 0 W/m 4,3 C -0,7 C 34,0 km/h (5 Bft) 98,36 %
29.10.2017 01:00 6,8 C 9,4 C 85 % 1011,6 hPa 1,4 l/m 24,6 km/h (4 Bft) W-SW 0,00 h 0,051 mm 0,0 UV-I 0 W/m 4,5 C -2,2 C 34,7 km/h (5 Bft) 97,53 %
29.10.2017 02:00 6,2 C 9,4 C 89 % 1008,8 hPa 3,8 l/m 29,0 km/h (5 Bft) W-SW 0,00 h 0,051 mm 0,0 UV-I 0 W/m 4,6 C -4,3 C 41,2 km/h (6 Bft) 98,48 %
29.10.2017 03:00 7,0 C 9,4 C 91 % 1005,7 hPa 1,6 l/m 30,5 km/h (5 Bft) SW 0,00 h 0,025 mm 0,0 UV-I 0 W/m 5,6 C -3,6 C 42,9 km/h (6 Bft) 97,78 %
29.10.2017 04:00 7,9 C 9,4 C 93 % 1003,8 hPa 3,0 l/m 27,0 km/h (4 Bft) W-SW 0,00 h 0,025 mm 0,0 UV-I 0 W/m 6,9 C -1,4 C 38,8 km/h (5 Bft) 97,21 %
29.10.2017 05:00 9,5 C 9,4 C 88 % 1001,9 hPa 0,2 l/m 33,5 km/h (5 Bft) W-SW 0,00 h 0,026 mm 0,0 UV-I 0 W/m 7,7 C -0,7 C 48,7 km/h (6 Bft) 97,63 %
29.10.2017 06:00 10,7 C 9,4 C 83 % 999,9 hPa 0,6 l/m 37,8 km/h (5 Bft) W-SW 0,00 h 0,051 mm 0,0 UV-I 0 W/m 7,8 C 0,4 C 54,1 km/h (7 Bft) 99,27 %
29.10.2017 07:00 11,8 C 9,4 C 76 % 998,1 hPa 0,2 l/m 40,6 km/h (6 Bft) W-SW 0,00 h 0,076 mm 0,0 UV-I 16 W/m 7,7 C 1,6 C 57,2 km/h (7 Bft) 98,02 %
29.10.2017 08:00 12,6 C 9,4 C 73 % 997,3 hPa 0,0 l/m 42,8 km/h (6 Bft) W-SW 0,00 h 0,101 mm 0,0 UV-I 53 W/m 7,9 C 2,5 C 61,9 km/h (8 Bft) 97,32 %
29.10.2017 09:00 13,0 C 9,4 C 72 % 997,6 hPa 0,0 l/m 45,3 km/h (6 Bft) W-SW 0,00 h 0,153 mm 0,5 UV-I 68 W/m 8,1 C 2,9 C 66,9 km/h (8 Bft) 98,64 %
29.10.2017 10:00 12,9 C 9,4 C 73 % 997,7 hPa 0,0 l/m 45,5 km/h (6 Bft) W-SW 0,02 h 0,178 mm 0,6 UV-I 108 W/m 8,1 C 2,7 C 67,5 km/h (8 Bft) 98,53 %
29.10.2017 11:00 10,8 C 9,4 C 83 % 999,5 hPa 4,4 l/m 32,2 km/h (5 Bft) W 0,00 h 0,177 mm 0,6 UV-I 70 W/m 8,0 C 2,0 C 50,9 km/h (7 Bft) 97,67 %
29.10.2017 12:00 8,4 C 9,4 C 91 % 1001,9 hPa 1,2 l/m 23,0 km/h (4 Bft) W 0,05 h 0,102 mm 0,8 UV-I 99 W/m 7,0 C 0,3 C 37,0 km/h (5 Bft) 97,04 %
29.10.2017 13:00 9,3 C 9,4 C 80 % 1003,4 hPa 0,0 l/m 20,8 km/h (4 Bft) W 0,53 h 0,076 mm 0,9 UV-I 251 W/m 6,0 C 2,2 C 31,5 km/h (5 Bft) 98,93 %
29.10.2017 14:00 10,1 C 9,4 C 68 % 1004,7 hPa 0,0 l/m 18,1 km/h (3 Bft) W 0,47 h 0,153 mm 0,6 UV-I 175 W/m 4,5 C 4,3 C 31,3 km/h (5 Bft) 98,69 %
29.10.2017 15:00 9,8 C 9,4 C 63 % 1006,0 hPa 0,0 l/m 20,9 km/h (4 Bft) W-SW 0,45 h 0,127 mm 0,0 UV-I 105 W/m 3,1 C 2,9 C 32,4 km/h (5 Bft) 98,77 %
29.10.2017 16:00 9,5 C 9,4 C 62 % 1007,1 hPa 0,0 l/m 23,3 km/h (4 Bft) W 0,55 h 0,127 mm 0,0 UV-I 45 W/m 2,6 C 1,7 C 36,6 km/h (5 Bft) 96,30 %
29.10.2017 17:00 8,7 C 9,4 C 65 % 1008,9 hPa 0,0 l/m 17,4 km/h (3 Bft) W-SW 0,00 h 0,101 mm 0,0 UV-I 4 W/m 2,5 C 2,7 C 27,8 km/h (4 Bft) 98,09 %
29.10.2017 18:00 8,5 C 9,4 C 64 % 1010,2 hPa 0,0 l/m 23,0 km/h (4 Bft) W 0,00 h 0,076 mm 0,0 UV-I 0 W/m 2,1 C 0,5 C 36,6 km/h (5 Bft) 98,26 %
29.10.2017 19:00 8,2 C 9,4 C 65 % 1011,0 hPa 0,0 l/m 23,4 km/h (4 Bft) W 0,00 h 0,077 mm 0,0 UV-I 0 W/m 2,0 C -0,1 C 36,4 km/h (5 Bft) 98,95 %
29.10.2017 20:00 7,9 C 9,4 C 68 % 1011,9 hPa 0,0 l/m 23,3 km/h (4 Bft) W-SW 0,00 h 0,076 mm 0,0 UV-I 0 W/m 2,3 C -0,4 C 36,8 km/h (5 Bft) 96,44 %
29.10.2017 21:00 7,8 C 9,4 C 69 % 1012,8 hPa 0,0 l/m 25,7 km/h (4 Bft) W 0,00 h 0,076 mm 0,0 UV-I 0 W/m 2,4 C -1,3 C 40,8 km/h (6 Bft) 97,91 %
29.10.2017 22:00 7,0 C 9,3 C 75 % 1013,6 hPa 0,0 l/m 21,3 km/h (4 Bft) W-SW 0,00 h 0,076 mm 0,0 UV-I 0 W/m 2,8 C -0,8 C 33,0 km/h (5 Bft) 98,18 %
29.10.2017 23:00 6,2 C 8,9 C 81 % 1013,9 hPa 0,0 l/m 22,4 km/h (4 Bft) W-SW 0,00 h 0,051 mm 0,0 UV-I 0 W/m 3,1 C -2,5 C 35,7 km/h (5 Bft) 99,71 %
Min-Datum _ 29.10.17 29.10.17 28.10.17 29.10.17 - 24.10.17 - - - - - 29.10.17 29.10.17 24.10.17 28.10.17
_ Min-Zeit 23:50 22:52 23:51 08:51 - 17:52 - - - - - 18:19 02:54 17:52 00:02
Minimum _ 5,8 C 8,9 C 60 % 997,0 hPa - 0,0 km/h (0 Bft) - - - - - 1,6 C -6,8 C 0,0 km/h (0 Bft) 9,52 %
Max-Datum _ 26.10.17 23.10.17 27.10.17 24.10.17 29.10.17 29.10.17 - 26.10.17 26.10.17 26.10.17 26.10.17 26.10.17 26.10.17 29.10.17 23.10.17
_ Max-Zeit 13:10 00:00 01:58 11:50 11:35 09:33 - 12:08 13:00 12:20 12:46 15:20 13:10 09:33 00:04
Maximum _ 16,5 C 11,1 C 98 % 1026,8 hPa 4,4 l/m 67,4 km/h
W-SW (8 Bft)
- 0,10 h 0,280 mm 1,9 UV-I 580 W/m 13,3 C 16,5 C 94,9 km/h
W (10 Bft)
100,00 %
Durchschnitt _ 9,6 C 10,4 C 86 % 1019,5 hPa #34,2 l/m 12,0 km/h (2 Bft) W-SW #13:54 h #7,619 mm 0,8 UV-I 101 W/m 7,3 C 5,9 C 18,5 km/h (3 Bft) 98,07 %